createdAt,value
2018-12-13T00:00:34.498Z,1.83
2018-12-13T00:03:02.208Z,1.74
2018-12-13T00:05:29.663Z,1.68
2018-12-13T00:07:57.335Z,1.62
2018-12-13T00:10:24.943Z,1.63
2018-12-13T00:12:52.331Z,1.67
2018-12-13T00:15:25.605Z,1.66
2018-12-13T00:18:22.148Z,1.87
2018-12-13T00:20:49.539Z,1.69
2018-12-13T00:23:16.860Z,1.68
2018-12-13T00:25:44.546Z,1.72
2018-12-13T00:28:12.082Z,1.59
2018-12-13T00:30:40.014Z,1.50
2018-12-13T00:33:07.602Z,1.46
2018-12-13T00:35:35.060Z,1.38
2018-12-13T00:38:02.732Z,1.35
2018-12-13T00:40:30.658Z,1.28
2018-12-13T00:42:58.116Z,1.27
2018-12-13T00:45:25.467Z,1.32
2018-12-13T00:47:53.203Z,1.26
2018-12-13T00:50:20.924Z,1.21
2018-12-13T00:52:48.672Z,1.22
2018-12-13T00:55:16.436Z,1.22
2018-12-13T00:57:44.119Z,1.31
2018-12-13T01:00:11.944Z,1.16
2018-12-13T01:02:39.728Z,1.14
2018-12-13T01:05:07.511Z,1.12
2018-12-13T01:07:35.272Z,1.08
2018-12-13T01:10:02.888Z,1.12
2018-12-13T01:12:30.532Z,1.10
2018-12-13T01:14:58.186Z,1.08
2018-12-13T01:17:25.776Z,0.99
2018-12-13T01:19:53.325Z,1.00
2018-12-13T01:22:21.023Z,1.01
2018-12-13T01:24:48.568Z,0.98
2018-12-13T01:27:16.471Z,1.02
2018-12-13T01:29:44.213Z,1.01
2018-12-13T01:32:11.870Z,0.97
2018-12-13T01:34:39.435Z,0.99
2018-12-13T01:37:07.021Z,0.97
2018-12-13T01:39:34.499Z,0.98
2018-12-13T01:42:02.173Z,1.06
2018-12-13T01:44:29.734Z,1.26
2018-12-13T01:46:57.079Z,1.26
2018-12-13T01:49:24.703Z,1.30
2018-12-13T01:51:52.114Z,1.57
2018-12-13T01:54:19.767Z,1.61
2018-12-13T01:56:47.218Z,1.79
2018-12-13T01:59:14.795Z,1.89
2018-12-13T02:01:42.515Z,1.99
2018-12-13T02:04:10.120Z,2.01
2018-12-13T02:09:40.000Z,2.23
2018-12-13T02:12:07.690Z,2.31
2018-12-13T02:14:35.328Z,2.37
2018-12-13T02:17:02.820Z,2.43
2018-12-13T02:19:30.530Z,2.41
2018-12-13T02:21:58.132Z,2.47
2018-12-13T02:24:25.776Z,2.70
2018-12-13T02:26:53.467Z,2.69
2018-12-13T02:29:21.280Z,2.73
2018-12-13T02:31:48.993Z,2.63
2018-12-13T02:34:16.660Z,2.55
2018-12-13T02:36:44.381Z,2.42
2018-12-13T02:39:12.123Z,2.34
2018-12-13T02:41:39.846Z,2.24
2018-12-13T02:44:07.200Z,2.19
2018-12-13T02:46:34.870Z,2.06
2018-12-13T02:49:08.546Z,1.98
2018-12-13T02:51:36.407Z,1.92
2018-12-13T02:54:04.169Z,1.81
2018-12-13T02:56:32.235Z,1.69
2018-12-13T02:58:59.781Z,1.70
2018-12-13T03:01:27.333Z,1.67
2018-12-13T03:03:54.869Z,1.57
2018-12-13T03:06:22.582Z,1.68
2018-12-13T03:08:50.273Z,1.53
2018-12-13T03:11:17.966Z,1.49
2018-12-13T03:13:45.535Z,1.33
2018-12-13T03:16:12.918Z,1.23
2018-12-13T03:18:40.719Z,1.21
2018-12-13T03:21:08.571Z,1.20
2018-12-13T03:23:36.499Z,1.29
2018-12-13T03:26:04.043Z,1.31
2018-12-13T03:28:31.579Z,1.32
2018-12-13T03:30:59.071Z,1.34
2018-12-13T03:33:26.743Z,1.39
2018-12-13T03:35:54.229Z,1.39
2018-12-13T03:38:21.879Z,1.38
2018-12-13T03:40:49.575Z,1.36
2018-12-13T03:43:17.269Z,1.31
2018-12-13T03:45:44.802Z,1.22
2018-12-13T03:48:12.420Z,1.14
2018-12-13T03:50:39.900Z,1.06
2018-12-13T03:53:07.857Z,0.97
2018-12-13T03:55:35.309Z,0.90
2018-12-13T03:58:04.255Z,1.15
2018-12-13T04:00:31.808Z,1.25
2018-12-13T04:02:59.485Z,1.36
2018-12-13T04:05:27.161Z,1.40
2018-12-13T04:07:54.807Z,1.38
2018-12-13T04:10:22.439Z,1.40
2018-12-13T04:12:50.027Z,1.34
2018-12-13T04:15:17.605Z,1.19
2018-12-13T04:17:45.009Z,1.01
2018-12-13T04:20:12.798Z,0.80
2018-12-13T04:22:40.487Z,1.00
2018-12-13T04:25:08.167Z,0.81
2018-12-13T04:27:35.735Z,0.73
2018-12-13T04:30:04.593Z,0.82
2018-12-13T04:32:32.216Z,0.76
2018-12-13T04:35:00.067Z,0.69
2018-12-13T04:37:34.986Z,0.50
2018-12-13T04:39:57.264Z,0.44
2018-12-13T04:42:24.926Z,0.62
2018-12-13T04:44:52.587Z,0.64
2018-12-13T04:47:20.211Z,0.55
2018-12-13T04:49:47.943Z,0.58
2018-12-13T04:52:15.723Z,0.40
2018-12-13T04:54:43.496Z,0.28
2018-12-13T04:57:11.219Z,0.19
2018-12-13T04:59:38.655Z,0.21
2018-12-13T05:02:06.318Z,0.23
2018-12-13T05:04:33.927Z,0.14
2018-12-13T05:07:01.532Z,0.09
2018-12-13T05:09:28.999Z,0.05
2018-12-13T05:11:56.683Z,-0.02
2018-12-13T05:14:24.361Z,-0.09
2018-12-13T05:16:52.231Z,-0.12
2018-12-13T05:19:19.725Z,-0.12
2018-12-13T05:21:47.279Z,-0.18
2018-12-13T05:24:15.017Z,-0.25
2018-12-13T05:26:42.587Z,-0.25
2018-12-13T05:29:10.247Z,-0.19
2018-12-13T05:31:37.804Z,-0.19
2018-12-13T05:34:05.279Z,-0.26
2018-12-13T05:36:32.920Z,-0.12
2018-12-13T05:39:00.496Z,0.41
2018-12-13T05:41:28.027Z,0.44
2018-12-13T05:43:55.679Z,0.54
2018-12-13T05:46:26.100Z,0.48
2018-12-13T05:48:54.594Z,0.42
2018-12-13T05:51:22.340Z,0.33
2018-12-13T05:53:49.842Z,0.33
2018-12-13T05:56:17.541Z,0.35
2018-12-13T05:58:49.311Z,0.37
2018-12-13T06:01:16.976Z,0.40
2018-12-13T06:03:44.631Z,0.41
2018-12-13T06:06:12.344Z,0.51
2018-12-13T06:08:39.911Z,0.51
2018-12-13T06:11:07.573Z,0.36
2018-12-13T06:13:35.107Z,0.35
2018-12-13T06:16:02.815Z,0.52
2018-12-13T06:18:30.415Z,0.55
2018-12-13T06:20:57.805Z,0.56
2018-12-13T06:23:25.357Z,0.53
2018-12-13T06:25:53.041Z,0.38
2018-12-13T06:28:20.524Z,0.44
2018-12-13T06:30:48.211Z,0.54
2018-12-13T06:33:15.559Z,0.44
2018-12-13T06:35:45.719Z,0.49
2018-12-13T06:38:13.303Z,0.55
2018-12-13T06:40:40.884Z,0.67
2018-12-13T06:43:08.560Z,0.48
2018-12-13T06:45:35.900Z,0.42
2018-12-13T06:48:03.684Z,0.36
2018-12-13T06:50:31.081Z,0.24
2018-12-13T06:52:58.713Z,0.24
2018-12-13T06:55:26.322Z,0.14
2018-12-13T06:57:54.003Z,0.06
2018-12-13T07:00:21.865Z,0.13
2018-12-13T07:02:49.646Z,0.04
2018-12-13T07:05:17.348Z,0.20
2018-12-13T07:07:46.764Z,0.18
2018-12-13T07:10:15.714Z,0.26
2018-12-13T07:12:43.155Z,0.38
2018-12-13T07:15:10.704Z,0.24
2018-12-13T07:17:38.292Z,0.13
2018-12-13T07:20:06.121Z,0.04
2018-12-13T07:22:33.786Z,0.11
2018-12-13T07:25:01.577Z,0.28
2018-12-13T07:27:29.225Z,0.30
2018-12-13T07:29:57.019Z,0.26
2018-12-13T07:32:24.656Z,0.27
2018-12-13T07:34:52.309Z,0.29
2018-12-13T07:37:20.016Z,0.26
2018-12-13T07:39:47.602Z,0.30
2018-12-13T07:42:15.204Z,0.24
2018-12-13T07:44:42.874Z,0.23
2018-12-13T07:47:10.647Z,0.23
2018-12-13T07:49:38.284Z,0.25
2018-12-13T07:52:05.805Z,0.28
2018-12-13T07:54:40.299Z,0.37
2018-12-13T07:57:07.774Z,0.46
2018-12-13T07:59:35.331Z,0.58
2018-12-13T08:02:03.091Z,0.73
2018-12-13T08:04:30.676Z,1.26
2018-12-13T08:06:58.256Z,1.39
2018-12-13T08:09:25.899Z,1.25
2018-12-13T08:11:53.498Z,1.12
2018-12-13T08:14:21.234Z,1.03
2018-12-13T08:16:48.811Z,1.01
2018-12-13T08:19:16.844Z,0.95
2018-12-13T08:21:44.503Z,0.90
2018-12-13T08:24:12.228Z,0.86
2018-12-13T08:26:40.171Z,0.89
2018-12-13T08:29:07.733Z,0.92
2018-12-13T08:31:35.317Z,1.02
2018-12-13T08:34:03.057Z,0.97
2018-12-13T08:36:30.810Z,1.01
2018-12-13T08:38:58.252Z,1.09
2018-12-13T08:41:25.887Z,1.09
2018-12-13T08:43:53.192Z,1.20
2018-12-13T08:46:20.828Z,1.26
2018-12-13T08:48:48.412Z,1.31
2018-12-13T08:51:15.986Z,1.34
2018-12-13T08:53:43.668Z,1.36
2018-12-13T08:56:11.284Z,1.38
2018-12-13T08:58:38.836Z,1.51
2018-12-13T09:01:06.462Z,1.50
2018-12-13T09:03:34.164Z,1.56
2018-12-13T09:06:01.593Z,1.56
2018-12-13T09:08:33.601Z,1.61
2018-12-13T09:10:59.111Z,1.68
2018-12-13T09:13:26.666Z,1.64
2018-12-13T09:15:54.506Z,1.65
2018-12-13T09:18:22.084Z,1.70
2018-12-13T09:20:49.779Z,1.78
2018-12-13T09:23:17.543Z,1.77
2018-12-13T09:25:44.950Z,1.79
2018-12-13T09:28:12.518Z,1.84
2018-12-13T09:30:39.888Z,1.84
2018-12-13T09:33:09.651Z,1.91
2018-12-13T09:35:38.623Z,1.94
2018-12-13T09:38:06.405Z,1.98
2018-12-13T09:40:34.029Z,2.09
2018-12-13T09:43:01.696Z,2.13
2018-12-13T09:45:29.290Z,2.11
2018-12-13T09:47:56.977Z,2.10
2018-12-13T09:50:24.491Z,2.15
2018-12-13T09:52:52.311Z,2.19
2018-12-13T09:55:20.096Z,2.22
2018-12-13T09:57:47.695Z,2.23
2018-12-13T10:00:15.661Z,2.18
2018-12-13T10:02:43.495Z,2.21
2018-12-13T10:05:11.065Z,2.27
2018-12-13T10:07:38.501Z,2.36
2018-12-13T10:10:06.113Z,2.40
2018-12-13T10:12:33.631Z,2.42
2018-12-13T10:15:01.377Z,2.47
2018-12-13T10:17:29.272Z,2.51
2018-12-13T10:19:56.839Z,2.61
2018-12-13T10:22:24.685Z,2.64
2018-12-13T10:24:52.285Z,2.57
2018-12-13T10:27:19.857Z,2.60
2018-12-13T10:29:47.503Z,2.60
2018-12-13T10:32:16.125Z,2.66
2018-12-13T10:34:43.729Z,2.72
2018-12-13T10:37:11.521Z,2.90
2018-12-13T10:39:39.030Z,3.09
2018-12-13T10:42:06.783Z,3.21
2018-12-13T10:44:35.836Z,3.30
2018-12-13T10:47:04.306Z,3.41
2018-12-13T10:49:31.742Z,3.54
2018-12-13T10:51:59.457Z,3.55
2018-12-13T10:54:27.127Z,3.58
2018-12-13T10:56:54.745Z,3.63
2018-12-13T10:59:22.261Z,3.74
2018-12-13T11:01:55.734Z,3.79
2018-12-13T11:04:23.411Z,3.87
2018-12-13T11:06:50.978Z,3.92
2018-12-13T11:09:18.732Z,4.07
2018-12-13T11:11:48.150Z,4.16
2018-12-13T11:14:18.553Z,4.30
2018-12-13T11:16:46.152Z,4.23
2018-12-13T11:19:13.920Z,4.30
2018-12-13T11:21:41.788Z,4.37
2018-12-13T11:24:09.426Z,4.49
2018-12-13T11:26:37.284Z,4.43
2018-12-13T11:29:42.061Z,4.49
2018-12-13T11:32:11.629Z,4.43
2018-12-13T11:34:39.329Z,4.53
2018-12-13T11:37:07.092Z,4.56
2018-12-13T11:39:34.712Z,4.62
2018-12-13T11:42:02.574Z,4.64
2018-12-13T11:44:30.129Z,4.60
2018-12-13T11:46:57.844Z,4.67
2018-12-13T11:49:25.400Z,4.85
2018-12-13T11:51:53.235Z,4.89
2018-12-13T11:54:33.712Z,4.47
2018-12-13T11:57:01.236Z,4.09
2018-12-13T11:59:28.967Z,3.94
2018-12-13T12:01:56.464Z,3.77
2018-12-13T12:04:24.028Z,3.68
2018-12-13T12:06:51.634Z,3.73
2018-12-13T12:09:19.191Z,3.83
2018-12-13T12:11:47.062Z,3.87
2018-12-13T12:14:14.682Z,4.05
2018-12-13T12:16:42.293Z,4.21
2018-12-13T12:19:10.002Z,4.34
2018-12-13T12:21:37.590Z,4.45
2018-12-13T12:24:05.300Z,4.58
2018-12-13T12:26:33.022Z,4.73
2018-12-13T12:29:00.747Z,4.90
2018-12-13T12:31:28.389Z,5.16
2018-12-13T12:33:56.129Z,4.94
2018-12-13T12:36:23.843Z,4.88
2018-12-13T12:38:51.187Z,4.83
2018-12-13T12:41:18.809Z,4.91
2018-12-13T12:43:46.628Z,4.91
2018-12-13T12:46:14.241Z,4.82
2018-12-13T12:48:42.087Z,4.73
2018-12-13T12:51:09.705Z,4.77
2018-12-13T12:53:37.085Z,4.65
2018-12-13T12:56:05.442Z,4.53
2018-12-13T12:58:33.031Z,4.42
2018-12-13T13:01:00.813Z,4.53
2018-12-13T13:03:28.401Z,4.67
2018-12-13T13:05:55.905Z,4.66
2018-12-13T13:08:23.576Z,4.66
2018-12-13T13:10:51.219Z,4.60
2018-12-13T13:13:18.991Z,4.65
2018-12-13T13:15:46.717Z,4.38
2018-12-13T13:18:14.883Z,4.24
2018-12-13T13:20:42.427Z,4.02
2018-12-13T13:23:10.249Z,3.77
2018-12-13T13:25:37.711Z,3.65
2018-12-13T13:28:05.332Z,3.52
2018-12-13T13:30:33.073Z,3.47
2018-12-13T13:33:00.997Z,3.43
2018-12-13T13:35:28.611Z,3.38
2018-12-13T13:37:56.288Z,3.32
2018-12-13T13:40:23.951Z,3.26
2018-12-13T13:42:51.637Z,3.26
2018-12-13T13:45:19.964Z,3.39
2018-12-13T13:47:47.672Z,3.42
2018-12-13T13:50:15.326Z,3.59
2018-12-13T13:52:43.132Z,3.56
2018-12-13T13:55:10.908Z,3.54
2018-12-13T13:57:38.605Z,3.54
2018-12-13T14:00:06.698Z,3.57
2018-12-13T14:02:34.736Z,3.57
2018-12-13T14:05:02.890Z,3.64
2018-12-13T14:07:30.442Z,3.69
2018-12-13T14:09:58.176Z,3.64
2018-12-13T14:12:25.696Z,3.56
2018-12-13T14:14:53.418Z,3.46
2018-12-13T14:17:21.074Z,3.45
2018-12-13T14:19:48.728Z,3.56
2018-12-13T14:22:16.405Z,3.59
2018-12-13T14:24:44.014Z,3.51
2018-12-13T14:27:11.920Z,3.42
2018-12-13T14:29:39.521Z,3.26
2018-12-13T14:32:07.095Z,3.22
2018-12-13T14:34:34.764Z,3.09
2018-12-13T14:37:02.687Z,2.94
2018-12-13T14:39:30.535Z,3.02
2018-12-13T14:41:58.271Z,3.02
2018-12-13T14:44:25.937Z,2.91
2018-12-13T14:46:53.563Z,2.81
2018-12-13T14:49:20.900Z,2.81
2018-12-13T14:51:48.518Z,2.85
2018-12-13T14:54:16.214Z,2.79
2018-12-13T14:56:44.516Z,2.92
2018-12-13T14:59:12.133Z,2.85
2018-12-13T15:01:39.978Z,2.74
2018-12-13T15:04:07.593Z,2.74
2018-12-13T15:06:35.134Z,2.88
2018-12-13T15:09:04.381Z,2.91
2018-12-13T15:11:31.973Z,2.85
2018-12-13T15:13:59.612Z,2.83
2018-12-13T15:16:27.305Z,2.84
2018-12-13T15:18:55.053Z,2.89
2018-12-13T15:21:22.820Z,2.92
2018-12-13T15:23:50.499Z,2.92
2018-12-13T15:26:18.088Z,3.03
2018-12-13T15:28:45.716Z,3.03
2018-12-13T15:31:13.347Z,2.95
2018-12-13T15:33:41.064Z,2.97
2018-12-13T15:36:08.789Z,3.18
2018-12-13T15:38:36.419Z,3.07
2018-12-13T15:41:04.151Z,3.09
2018-12-13T15:43:31.762Z,2.95
2018-12-13T15:45:59.146Z,2.99
2018-12-13T15:48:26.797Z,2.96
2018-12-13T15:50:54.168Z,2.98
2018-12-13T15:53:21.789Z,2.95
2018-12-13T15:55:49.409Z,2.86
2018-12-13T15:58:17.173Z,2.85
2018-12-13T16:00:44.878Z,2.78
2018-12-13T16:03:12.530Z,2.96
2018-12-13T16:05:39.876Z,3.00
2018-12-13T16:08:07.719Z,2.90
2018-12-13T16:10:35.495Z,2.94
2018-12-13T16:13:03.162Z,2.92
2018-12-13T16:15:30.933Z,2.83
2018-12-13T16:17:58.308Z,2.78
2018-12-13T16:20:25.927Z,2.74
2018-12-13T16:22:53.392Z,2.66
2018-12-13T16:25:21.115Z,2.77
2018-12-13T16:27:48.827Z,2.74
2018-12-13T16:30:16.699Z,2.76
2018-12-13T16:32:44.270Z,2.80
2018-12-13T16:35:11.960Z,2.84
2018-12-13T16:37:39.547Z,2.78
2018-12-13T16:40:10.363Z,2.79
2018-12-13T16:42:37.014Z,2.84
2018-12-13T16:45:05.304Z,2.99
2018-12-13T16:47:32.864Z,2.95
2018-12-13T16:50:00.457Z,2.89
2018-12-13T16:52:28.045Z,2.93
2018-12-13T16:54:55.734Z,2.88
2018-12-13T16:57:23.300Z,2.84
2018-12-13T16:59:50.849Z,2.76
2018-12-13T17:02:18.540Z,2.71
2018-12-13T17:04:45.889Z,2.67
2018-12-13T17:07:13.400Z,2.64
2018-12-13T17:09:40.940Z,2.62
2018-12-13T17:12:08.778Z,2.90
2018-12-13T17:14:36.504Z,2.80
2018-12-13T17:17:04.419Z,2.68
2018-12-13T17:19:32.132Z,2.76
2018-12-13T17:21:59.981Z,2.75
2018-12-13T17:24:27.657Z,2.72
2018-12-13T17:26:55.463Z,2.64
2018-12-13T17:29:23.096Z,2.65
2018-12-13T17:31:50.669Z,2.70
2018-12-13T17:34:18.344Z,2.84
2018-12-13T17:36:45.969Z,2.64
2018-12-13T17:39:13.730Z,2.65
2018-12-13T17:41:41.656Z,2.66
2018-12-13T17:44:09.476Z,2.61
2018-12-13T17:46:36.912Z,2.57
2018-12-13T17:49:04.484Z,2.90
2018-12-13T17:51:31.908Z,2.82
2018-12-13T17:53:59.608Z,2.84
2018-12-13T17:56:27.278Z,2.81
2018-12-13T17:58:54.960Z,2.75
2018-12-13T18:01:22.644Z,2.65
2018-12-13T18:03:50.787Z,2.69
2018-12-13T18:06:18.440Z,2.72
2018-12-13T18:08:46.036Z,2.67
2018-12-13T18:11:13.691Z,2.70
2018-12-13T18:13:41.304Z,2.72
2018-12-13T18:16:08.889Z,2.68
2018-12-13T18:18:36.496Z,2.72
2018-12-13T18:21:04.331Z,2.73
2018-12-13T18:23:31.835Z,2.98
2018-12-13T18:25:59.492Z,2.86
2018-12-13T18:28:27.176Z,2.72
2018-12-13T18:30:54.906Z,2.69
2018-12-13T18:33:22.342Z,2.69
2018-12-13T18:35:49.944Z,2.68
2018-12-13T18:38:17.680Z,2.71
2018-12-13T18:40:45.244Z,2.66
2018-12-13T18:43:13.093Z,2.62
2018-12-13T18:45:40.740Z,2.59
2018-12-13T18:48:08.354Z,2.64
2018-12-13T18:50:35.768Z,2.68
2018-12-13T18:53:03.542Z,2.66
2018-12-13T18:55:31.406Z,2.72
2018-12-13T18:57:59.093Z,2.81
2018-12-13T19:00:26.644Z,2.75
2018-12-13T19:02:54.422Z,2.68
2018-12-13T19:05:22.216Z,2.78
2018-12-13T19:07:49.864Z,2.70
2018-12-13T19:10:17.700Z,2.61
2018-12-13T19:12:45.231Z,2.74
2018-12-13T19:15:12.700Z,2.65
2018-12-13T19:17:40.312Z,2.56
2018-12-13T19:20:08.734Z,2.56
2018-12-13T19:22:36.586Z,2.52
2018-12-13T19:25:05.892Z,2.54
2018-12-13T19:27:33.486Z,2.45
2018-12-13T19:30:01.120Z,2.44
2018-12-13T19:32:28.856Z,2.50
2018-12-13T19:35:00.251Z,2.51
2018-12-13T19:37:28.293Z,2.51
2018-12-13T19:39:55.875Z,2.58
2018-12-13T19:42:23.543Z,2.51
2018-12-13T19:44:51.171Z,2.51
2018-12-13T19:47:19.179Z,2.68
2018-12-13T19:49:48.356Z,2.61
2018-12-13T19:52:16.129Z,2.56
2018-12-13T19:54:43.765Z,2.65
2018-12-13T19:57:11.825Z,2.55
2018-12-13T19:59:39.800Z,2.70
2018-12-13T20:02:07.697Z,2.63
2018-12-13T20:04:35.399Z,2.59
2018-12-13T20:07:03.179Z,2.47
2018-12-13T20:09:30.857Z,2.47
2018-12-13T20:11:58.558Z,2.46
2018-12-13T20:14:26.169Z,2.45
2018-12-13T20:16:54.346Z,2.59
2018-12-13T20:19:22.047Z,2.49
2018-12-13T20:21:49.685Z,2.52
2018-12-13T20:24:17.493Z,2.41
2018-12-13T20:26:45.377Z,2.39
2018-12-13T20:29:13.542Z,2.39
2018-12-13T20:31:41.095Z,2.52
2018-12-13T20:34:08.792Z,2.42
2018-12-13T20:36:36.462Z,2.38
2018-12-13T20:39:08.040Z,2.51
2018-12-13T20:41:36.700Z,2.46
2018-12-13T20:44:04.079Z,2.43
2018-12-13T20:46:32.006Z,2.49
2018-12-13T20:48:59.669Z,2.48
2018-12-13T20:51:27.978Z,2.45
2018-12-13T20:53:55.867Z,2.45
2018-12-13T20:56:23.533Z,2.42
2018-12-13T20:58:51.106Z,2.45
2018-12-13T21:01:18.826Z,2.40
2018-12-13T21:03:46.656Z,2.48
2018-12-13T21:06:14.400Z,2.50
2018-12-13T21:08:42.022Z,2.44
2018-12-13T21:11:09.644Z,2.33
2018-12-13T21:13:37.576Z,2.23
2018-12-13T21:16:05.144Z,2.25
2018-12-13T21:18:32.886Z,2.31
2018-12-13T21:21:00.656Z,2.31
2018-12-13T21:23:31.114Z,2.40
2018-12-13T21:25:59.131Z,2.45
2018-12-13T21:28:26.712Z,2.33
2018-12-13T21:30:54.063Z,2.29
2018-12-13T21:33:21.615Z,2.25
2018-12-13T21:35:49.159Z,2.31
2018-12-13T21:38:16.972Z,2.39
2018-12-13T21:40:44.719Z,2.32
2018-12-13T21:43:12.355Z,2.24
2018-12-13T21:45:39.708Z,2.35
2018-12-13T21:48:07.372Z,2.34
2018-12-13T21:50:34.770Z,2.39
2018-12-13T21:53:02.396Z,2.46
2018-12-13T21:55:30.046Z,2.36
2018-12-13T21:57:57.647Z,2.47
2018-12-13T22:00:25.409Z,2.43
2018-12-13T22:02:53.299Z,2.33
2018-12-13T22:05:20.873Z,2.35
2018-12-13T22:07:48.621Z,2.31
2018-12-13T22:10:16.323Z,2.37
2018-12-13T22:12:43.799Z,2.34
2018-12-13T22:15:11.998Z,2.40
2018-12-13T22:17:39.492Z,2.36
2018-12-13T22:20:07.450Z,2.35
2018-12-13T22:22:35.069Z,2.49
2018-12-13T22:25:02.846Z,2.40
2018-12-13T22:27:30.423Z,2.35
2018-12-13T22:29:58.022Z,2.29
2018-12-13T22:32:25.609Z,2.29
2018-12-13T22:34:53.337Z,2.22
2018-12-13T22:37:21.062Z,2.27
2018-12-13T22:39:48.921Z,2.23
2018-12-13T22:42:16.509Z,2.25
2018-12-13T22:44:44.155Z,2.30
2018-12-13T22:47:11.773Z,2.36
2018-12-13T22:49:39.617Z,2.26
2018-12-13T22:52:07.159Z,2.30
2018-12-13T22:54:34.737Z,2.44
2018-12-13T22:57:02.295Z,2.51
2018-12-13T22:59:29.925Z,2.37
2018-12-13T23:01:57.571Z,2.39
2018-12-13T23:04:25.715Z,2.26
2018-12-13T23:06:53.516Z,2.28
2018-12-13T23:09:21.349Z,2.23
2018-12-13T23:11:48.965Z,2.13
2018-12-13T23:14:16.660Z,2.15
2018-12-13T23:16:44.405Z,2.17
2018-12-13T23:19:12.081Z,2.14
2018-12-13T23:21:39.797Z,2.12
2018-12-13T23:24:07.590Z,2.13
2018-12-13T23:26:35.167Z,2.26
2018-12-13T23:29:02.765Z,2.33
2018-12-13T23:31:30.341Z,2.30
2018-12-13T23:33:58.000Z,2.26
2018-12-13T23:36:25.715Z,2.28
2018-12-13T23:38:53.548Z,2.35
2018-12-13T23:41:20.877Z,2.41
2018-12-13T23:43:48.483Z,2.27
2018-12-13T23:46:15.879Z,2.32
2018-12-13T23:48:43.610Z,2.34
2018-12-13T23:51:11.293Z,2.25
2018-12-13T23:53:39.051Z,2.23
2018-12-13T23:56:06.941Z,2.30
2018-12-13T23:58:34.796Z,2.31
